Buffalo, South Dakota
Current Conditions -  °F | °C
As of 1:53 AM on Wednesday 28 Jan 2015 (Local Time) from KHEI Reporting Station
Clear Clear  
Wind Chill: 28°   Ceiling: Unl
Heat Index: 28°   Visibility: 10mi
Dew Point: 25°   Wind: 3mph
Humidity: 88%   Direction: 290°WNW
Pressure: 29.76"   Gusts: NA
Location:  45.58°N, 103.55°W
Report Text: KHEI 280853Z AUTO 29003KT 10SM CLR M02/M04 A2976 RMK AO2 SLP084 T10221039 58010
Loading
Personal Weather Stations






























Interactive Weather Map New forecast layout! Learn more

10-Day Weather Forecast

Advertisements
Track Severe Weather on mobile